createdAt,value
2023-02-24T00:00:23.020Z,99147.2
2023-02-24T00:01:23.521Z,99143.86
2023-02-24T00:02:23.789Z,99141.76
2023-02-24T00:03:24.401Z,99137.95
2023-02-24T00:04:24.678Z,99138.05
2023-02-24T00:05:25.181Z,99135.34
2023-02-24T00:06:29.797Z,99129.97
2023-02-24T00:07:27.448Z,99128.45
2023-02-24T00:08:27.759Z,99129.62
2023-02-24T00:09:29.415Z,99129.62
2023-02-24T00:10:28.502Z,99125.22
2023-02-24T00:11:28.694Z,99122.2
2023-02-24T00:12:29.118Z,99118.03
2023-02-24T00:13:30.247Z,99118.48
2023-02-24T00:14:33.535Z,99120.81
2023-02-24T00:15:30.778Z,99116.02
2023-02-24T00:16:31.974Z,99106.96
2023-02-24T00:17:31.914Z,99110.5
2023-02-24T00:18:33.070Z,99105.11
2023-02-24T00:19:32.333Z,99104.53
2023-02-24T00:20:33.881Z,99103.84
2023-02-24T00:21:34.181Z,99102.8
2023-02-24T00:22:34.007Z,99097.73
2023-02-24T00:23:37.173Z,99094.36
2023-02-24T00:24:34.920Z,99093.17
2023-02-24T00:25:35.026Z,99089.74
2023-02-24T00:26:35.341Z,99086.1
2023-02-24T00:27:35.668Z,99084.09
2023-02-24T00:28:36.607Z,99080.83
2023-02-24T00:29:36.489Z,99084.04
2023-02-24T00:30:37.032Z,99075.77
2023-02-24T00:31:38.094Z,99075.69
2023-02-24T00:32:37.861Z,99073.2
2023-02-24T00:33:38.372Z,99068.62
2023-02-24T00:34:39.217Z,99066.49
2023-02-24T00:35:38.798Z,99064.06
2023-02-24T00:36:39.822Z,99062.16
2023-02-24T00:37:39.621Z,99061.55
2023-02-24T00:38:41.591Z,99062.09
2023-02-24T00:39:42.243Z,99060.75
2023-02-24T00:40:41.717Z,99053.47
2023-02-24T00:41:43.704Z,99057.22
2023-02-24T00:42:42.428Z,99051.42
2023-02-24T00:43:44.175Z,99046.87
2023-02-24T00:44:46.950Z,99042.81
2023-02-24T00:45:44.396Z,99042.48
2023-02-24T00:46:46.471Z,99033.59
2023-02-24T00:47:45.010Z,99037.23
2023-02-24T00:48:45.745Z,99035
2023-02-24T00:49:46.348Z,99030.55
2023-02-24T00:50:46.504Z,99029.34
2023-02-24T00:51:48.869Z,99029.27
2023-02-24T00:52:48.516Z,99024.27
2023-02-24T00:53:47.526Z,99022.3
2023-02-24T00:54:49.955Z,99019.71
2023-02-24T00:55:48.240Z,99018.43
2023-02-24T00:56:48.965Z,99017.83
2023-02-24T00:57:49.650Z,99019.04
2023-02-24T00:58:49.507Z,99011.66
2023-02-24T00:59:50.014Z,99008.83
2023-02-24T01:00:50.345Z,99009.72
2023-02-24T01:01:51.615Z,99006.59
2023-02-24T01:02:51.054Z,99010.39
2023-02-24T01:03:52.630Z,99004.61
2023-02-24T01:04:51.804Z,99004.85
2023-02-24T01:05:52.623Z,99005.43
2023-02-24T01:06:53.938Z,98999.56
2023-02-24T01:07:53.031Z,99000.78
2023-02-24T01:08:54.580Z,98999.42
2023-02-24T01:09:53.996Z,98998.73
2023-02-24T01:11:00.844Z,98999.02
2023-02-24T01:11:59.034Z,98997.61
2023-02-24T01:12:58.405Z,98994.55
2023-02-24T01:13:59.729Z,98991.11
2023-02-24T01:14:59.419Z,98989.46
2023-02-24T01:16:00.401Z,98988.98
2023-02-24T01:17:00.254Z,98987.69
2023-02-24T01:18:00.797Z,98983.48
2023-02-24T01:19:01.805Z,98984.84
2023-02-24T01:20:01.411Z,98982.62
2023-02-24T01:21:01.618Z,98980.75
2023-02-24T01:22:05.214Z,98978.08
2023-02-24T01:23:02.654Z,98973.12
2023-02-24T01:24:03.182Z,98970.78
2023-02-24T01:25:03.562Z,98971.03
2023-02-24T01:26:03.915Z,98970.91
2023-02-24T01:27:05.649Z,98968.55
2023-02-24T01:28:05.045Z,98965.41
2023-02-24T01:29:05.057Z,98968.59
2023-02-24T01:30:06.491Z,98962.69
2023-02-24T01:31:06.594Z,98964.33
2023-02-24T01:32:14.881Z,98955.08
2023-02-24T01:33:07.480Z,98957.6
2023-02-24T01:34:08.874Z,98958.23
2023-02-24T01:35:09.086Z,98949.06
2023-02-24T01:36:11.264Z,98944.78
2023-02-24T01:37:09.609Z,98947.38
2023-02-24T01:38:09.414Z,98944.6
2023-02-24T01:39:10.865Z,98941.25
2023-02-24T01:40:12.806Z,98943.75
2023-02-24T01:41:13.427Z,98937.5
2023-02-24T01:42:15.072Z,98935.91
2023-02-24T01:43:12.321Z,98935.66
2023-02-24T01:45:21.254Z,98926.26
2023-02-24T01:46:18.914Z,98922.91
2023-02-24T01:47:20.533Z,98922.21
2023-02-24T01:48:19.508Z,98920.62
2023-02-24T01:50:24.747Z,98912.48
2023-02-24T01:51:25.065Z,98914.44
2023-02-24T01:52:29.373Z,98910.16
2023-02-24T01:53:26.739Z,98906.84
2023-02-24T01:54:32.048Z,98911.53
2023-02-24T01:56:33.193Z,98910.09
2023-02-24T01:57:35.959Z,98905
2023-02-24T01:58:34.738Z,98902.08
2023-02-24T01:59:34.743Z,98897.09
2023-02-24T02:00:35.813Z,98895.08
2023-02-24T02:01:36.206Z,98896.51
2023-02-24T02:02:36.154Z,98897.23
2023-02-24T02:03:38.144Z,98887.7
2023-02-24T02:05:40.659Z,98888.14
2023-02-24T02:06:39.088Z,98885.36
2023-02-24T02:07:41.856Z,98880.58
2023-02-24T02:08:43.107Z,98878.94
2023-02-24T02:09:40.870Z,98875.22
2023-02-24T02:10:42.193Z,98873.45
2023-02-24T02:11:42.619Z,98873.3
2023-02-24T02:12:43.962Z,98867.81
2023-02-24T02:13:44.955Z,98865.89
2023-02-24T02:49:21.659Z,98803
2023-02-24T02:55:33.578Z,98796.13
2023-02-24T02:57:31.644Z,98789.12
2023-02-24T02:58:36.050Z,98786.12
2023-02-24T02:59:37.588Z,98786.14
2023-02-24T03:00:42.835Z,98787.07
2023-02-24T03:01:39.035Z,98781.93
2023-02-24T03:02:39.658Z,98778.56
2023-02-24T03:03:51.137Z,98776.69
2023-02-24T03:04:47.621Z,98777.53
2023-02-24T03:09:55.673Z,98765.74
2023-02-24T03:10:57.953Z,98759.33
2023-02-24T03:12:04.199Z,98759.02
2023-02-24T03:13:00.532Z,98757.06
2023-02-24T03:13:58.080Z,98754.3
2023-02-24T03:15:02.193Z,98754.05
2023-02-24T03:16:03.747Z,98754.45
2023-02-24T03:17:04.335Z,98752.78
2023-02-24T03:18:07.915Z,98751.88
2023-02-24T03:19:07.934Z,98750.22
2023-02-24T03:21:15.731Z,98746
2023-02-24T03:22:14.191Z,98743.5
2023-02-24T03:23:18.192Z,98739.13
2023-02-24T03:24:15.970Z,98734.17
2023-02-24T03:25:16.681Z,98727.61
2023-02-24T03:35:39.979Z,98701.3
2023-02-24T03:36:38.048Z,98702.5
2023-02-24T03:37:38.071Z,98702.91
2023-02-24T03:38:38.596Z,98702.73
2023-02-24T03:39:39.601Z,98702.08
2023-02-24T03:40:40.420Z,98700.23
2023-02-24T03:42:45.254Z,98700.68
2023-02-24T03:43:47.017Z,98694.84
2023-02-24T03:44:44.652Z,98696.97
2023-02-24T03:45:45.107Z,98689.27
2023-02-24T03:46:45.271Z,98686.31
2023-02-24T03:47:45.696Z,98686.23
2023-02-24T03:49:48.169Z,98686.44
2023-02-24T03:50:48.186Z,98686.61
2023-02-24T04:05:31.573Z,98639.25
2023-02-24T04:15:04.316Z,98639.77
2023-02-24T04:15:59.913Z,98644.16
2023-02-24T04:16:58.374Z,98639.59
2023-02-24T04:18:07.703Z,98636.05
2023-02-24T04:19:05.560Z,98639.5
2023-02-24T04:20:06.994Z,98643.59
2023-02-24T04:21:06.804Z,98638.64
2023-02-24T04:22:08.445Z,98634.52
2023-02-24T04:23:11.433Z,98627.31
2023-02-24T04:24:11.934Z,98622.97
2023-02-24T04:25:11.132Z,98622.32
2023-02-24T04:26:12.702Z,98619.16
2023-02-24T04:27:11.994Z,98611.94
2023-02-24T04:28:12.292Z,98609.59
2023-02-24T04:29:16.070Z,98606.8
2023-02-24T04:30:14.666Z,98601.77
2023-02-24T04:31:15.795Z,98600.17
2023-02-24T04:32:18.734Z,98607.92
2023-02-24T04:33:16.813Z,98608.09
2023-02-24T04:34:17.331Z,98605
2023-02-24T04:35:20.914Z,98603.89
2023-02-24T04:36:19.502Z,98602.58
2023-02-24T04:37:19.786Z,98600.95
2023-02-24T04:38:19.502Z,98600.39
2023-02-24T04:39:20.954Z,98599.36
2023-02-24T04:40:21.730Z,98596.19
2023-02-24T04:41:20.712Z,98597.32
2023-02-24T04:42:20.754Z,98596.58
2023-02-24T04:43:21.195Z,98597.22
2023-02-24T04:44:22.722Z,98596.14
2023-02-24T04:45:28.455Z,98593.47
2023-02-24T04:46:25.933Z,98587.61
2023-02-24T04:47:26.317Z,98587.75
2023-02-24T04:48:26.843Z,98594.44
2023-02-24T04:49:27.335Z,98603.42
2023-02-24T04:50:35.661Z,98597.11
2023-02-24T04:51:27.998Z,98599.81
2023-02-24T04:52:28.428Z,98596.94
2023-02-24T04:53:29.051Z,98600.95
2023-02-24T04:54:29.141Z,98600.64
2023-02-24T04:55:31.717Z,98599.19
2023-02-24T04:56:30.356Z,98597.3
2023-02-24T04:57:30.561Z,98600.66
2023-02-24T04:58:31.000Z,98597.09
2023-02-24T04:59:31.546Z,98600.66
2023-02-24T05:00:31.838Z,98594.39
2023-02-24T05:01:32.152Z,98594.88
2023-02-24T05:02:32.582Z,98594.46
2023-02-24T05:03:33.037Z,98597.7
2023-02-24T05:04:36.090Z,98593.07
2023-02-24T05:05:34.442Z,98591.52
2023-02-24T05:06:35.060Z,98585.08
2023-02-24T05:07:34.558Z,98586.86
2023-02-24T05:08:35.685Z,98585.31
2023-02-24T05:09:36.209Z,98589.57
2023-02-24T05:10:41.125Z,98589.14
2023-02-24T05:11:38.690Z,98585.84
2023-02-24T05:12:38.998Z,98584.23
2023-02-24T05:13:39.448Z,98583.89
2023-02-24T05:14:39.825Z,98582.27
2023-02-24T05:15:42.583Z,98581.95
2023-02-24T05:16:44.640Z,98580
2023-02-24T05:17:41.989Z,98579.11
2023-02-24T05:18:42.921Z,98576.66
2023-02-24T05:19:43.237Z,98576.34
2023-02-24T05:20:47.128Z,98576.51
2023-02-24T05:21:44.568Z,98569.27
2023-02-24T05:22:44.889Z,98574.34
2023-02-24T05:23:47.024Z,98572.4
2023-02-24T05:24:46.043Z,98567.48
2023-02-24T05:25:46.136Z,98571.31
2023-02-24T05:26:46.781Z,98566.58
2023-02-24T05:27:47.588Z,98567.97
2023-02-24T05:28:49.594Z,98565.61
2023-02-24T05:29:48.001Z,98567.01
2023-02-24T05:30:48.262Z,98562.28
2023-02-24T05:31:48.889Z,98569.12
2023-02-24T05:32:49.145Z,98566.03
2023-02-24T05:33:52.750Z,98565.55
2023-02-24T05:34:50.388Z,98566.12
2023-02-24T05:35:51.044Z,98567.67
2023-02-24T05:36:51.247Z,98566.69
2023-02-24T05:37:51.413Z,98567.98
2023-02-24T05:38:56.385Z,98570.78
2023-02-24T05:39:57.382Z,98564.58
2023-02-24T05:40:54.749Z,98563.28
2023-02-24T05:41:56.066Z,98561.5
2023-02-24T05:42:55.477Z,98562.17
2023-02-24T05:43:56.489Z,98560.31
2023-02-24T05:44:56.277Z,98557.93
2023-02-24T05:46:00.411Z,98556.95
2023-02-24T05:46:58.759Z,98555.97
2023-02-24T05:47:58.282Z,98550.45
2023-02-24T05:49:01.059Z,98550.11
2023-02-24T05:49:59.122Z,98548.49
2023-02-24T05:50:59.416Z,98549.55
2023-02-24T05:52:03.508Z,98546.77
2023-02-24T05:53:00.951Z,98548.32
2023-02-24T05:54:09.265Z,98545.39
2023-02-24T05:55:01.894Z,98544.88
2023-02-24T05:56:02.712Z,98547.83
2023-02-24T05:57:09.002Z,98545.73
2023-02-24T05:58:06.611Z,98540.36
2023-02-24T05:59:08.474Z,98538.25
2023-02-24T06:00:08.579Z,98537.59
2023-02-24T06:01:12.581Z,98535.64
2023-02-24T06:02:12.693Z,98533.77
2023-02-24T06:03:10.632Z,98532.94
2023-02-24T06:04:12.188Z,98530.26
2023-02-24T06:05:11.924Z,98524.33
2023-02-24T06:06:13.224Z,98525.16
2023-02-24T06:07:19.878Z,98524.58
2023-02-24T06:08:17.341Z,98521.67
2023-02-24T06:09:18.474Z,98518.64
2023-02-24T06:10:18.997Z,98519.86
2023-02-24T06:11:20.354Z,98517.91
2023-02-24T06:12:20.939Z,98516.64
2023-02-24T06:13:19.315Z,98513.45
2023-02-24T06:14:19.735Z,98513.61
2023-02-24T06:15:20.251Z,98510.41
2023-02-24T06:16:20.617Z,98511
2023-02-24T06:17:23.331Z,98508.62
2023-02-24T06:18:21.501Z,98508.98
2023-02-24T06:19:22.114Z,98509.53
2023-02-24T06:20:25.504Z,98509.86
2023-02-24T06:21:23.339Z,98503.91
2023-02-24T06:22:25.110Z,98509.31
2023-02-24T06:23:23.683Z,98500.49
2023-02-24T06:24:24.092Z,98504.73
2023-02-24T06:25:26.250Z,98505.46
2023-02-24T06:26:25.861Z,98499.43
2023-02-24T06:27:25.725Z,98504.75
2023-02-24T06:28:25.757Z,98503.52
2023-02-24T06:29:26.170Z,98501.64
2023-02-24T06:30:26.690Z,98505.8
2023-02-24T06:31:27.989Z,98506.55
2023-02-24T06:32:27.686Z,98508.56
2023-02-24T06:33:27.761Z,98509.06
2023-02-24T06:34:28.268Z,98507.11
2023-02-24T06:35:28.591Z,98507.11
2023-02-24T06:36:28.996Z,98507.34
2023-02-24T06:37:29.502Z,98505.16
2023-02-24T06:38:30.538Z,98507.45
2023-02-24T06:39:36.242Z,98507.43
2023-02-24T06:40:34.237Z,98508.73
2023-02-24T06:41:35.780Z,98509.56
2023-02-24T06:42:35.305Z,98511.19
2023-02-24T06:43:35.397Z,98511.58
2023-02-24T06:44:38.565Z,98510.46
2023-02-24T06:45:36.799Z,98511.19
2023-02-24T06:46:36.962Z,98510.8
2023-02-24T06:47:37.973Z,98513.22
2023-02-24T06:48:37.569Z,98512.34
2023-02-24T06:49:38.405Z,98508.81
2023-02-24T06:50:40.013Z,98509.96
2023-02-24T06:51:39.532Z,98509.31
2023-02-24T06:52:39.637Z,98509.95
2023-02-24T06:53:40.558Z,98509.8
2023-02-24T06:54:40.271Z,98509.08
2023-02-24T06:55:40.778Z,98509.55
2023-02-24T06:56:41.206Z,98502.95
2023-02-24T06:57:41.518Z,98503.03
2023-02-24T06:58:43.065Z,98500.98
2023-02-24T06:59:42.052Z,98501.16
2023-02-24T07:00:42.562Z,98490.96
2023-02-24T07:01:42.780Z,98493.14
2023-02-24T07:02:43.175Z,98488.19
2023-02-24T07:03:44.427Z,98487.77
2023-02-24T07:04:44.018Z,98485.57
2023-02-24T07:05:46.698Z,98479.53
2023-02-24T07:06:47.014Z,98480.33
2023-02-24T07:07:44.768Z,98480.19
2023-02-24T07:08:45.077Z,98480.74
2023-02-24T07:09:45.495Z,98477.72
2023-02-24T07:10:51.518Z,98475.47
2023-02-24T07:11:50.525Z,98472.8
2023-02-24T07:12:49.400Z,98474.25
2023-02-24T07:13:50.651Z,98474.65
2023-02-24T07:14:50.133Z,98471.14
2023-02-24T07:15:50.850Z,98470.07
2023-02-24T07:16:51.032Z,98471.46
2023-02-24T07:17:54.246Z,98465.84
2023-02-24T07:19:53.847Z,98462.41
2023-02-24T07:20:54.231Z,98464.84
2023-02-24T07:22:00.568Z,98459.94
2023-02-24T07:22:58.177Z,98464.83
2023-02-24T07:23:59.445Z,98462.19
2023-02-24T07:24:58.695Z,98461.88
2023-02-24T07:25:59.006Z,98466.11
2023-02-24T07:27:01.987Z,98462.23
2023-02-24T07:28:02.399Z,98464.39
2023-02-24T07:29:00.164Z,98460.44
2023-02-24T07:30:00.473Z,98460.77
2023-02-24T07:31:00.848Z,98462.16
2023-02-24T07:32:02.827Z,98461.86
2023-02-24T07:33:01.310Z,98461.31
2023-02-24T07:34:01.854Z,98461.94
2023-02-24T07:35:01.934Z,98461.18
2023-02-24T07:36:03.296Z,98456.77
2023-02-24T07:37:02.662Z,98452.17
2023-02-24T07:38:04.530Z,98449.62
2023-02-24T07:39:03.700Z,98452.88
2023-02-24T07:40:04.320Z,98450.03
2023-02-24T07:41:07.715Z,98448.44
2023-02-24T07:42:08.565Z,98445.98
2023-02-24T07:43:06.091Z,98448.75
2023-02-24T07:44:06.410Z,98442.48
2023-02-24T07:45:08.098Z,98441.55
2023-02-24T07:46:15.516Z,98440.53
2023-02-24T07:47:08.254Z,98444.27
2023-02-24T07:48:08.274Z,98441.2
2023-02-24T07:49:13.900Z,98439.27
2023-02-24T07:50:12.782Z,98441.3
2023-02-24T07:51:16.964Z,98440.67
2023-02-24T07:52:14.356Z,98443.01
2023-02-24T07:53:14.745Z,98438.94
2023-02-24T07:54:15.165Z,98439.66
2023-02-24T07:55:16.198Z,98433.27
2023-02-24T07:56:16.512Z,98431.24
2023-02-24T07:57:16.004Z,98432.34
2023-02-24T07:58:16.323Z,98430.55
2023-02-24T07:59:16.832Z,98428.83
2023-02-24T08:00:17.967Z,98426.07
2023-02-24T08:01:19.736Z,98433.03
2023-02-24T08:02:17.807Z,98428.78
2023-02-24T08:03:18.105Z,98428.44
2023-02-24T08:04:21.343Z,98420.27
2023-02-24T08:05:18.988Z,98421.58
2023-02-24T08:06:19.340Z,98423.26
2023-02-24T08:07:20.486Z,98422.06
2023-02-24T08:08:19.657Z,98423.39
2023-02-24T08:09:20.845Z,98421.83
2023-02-24T08:10:20.598Z,98420.42
2023-02-24T08:11:21.366Z,98419.59
2023-02-24T08:12:22.863Z,98419.56
2023-02-24T08:13:21.449Z,98416.72
2023-02-24T08:14:27.056Z,98414.52
2023-02-24T08:15:26.696Z,98410.84
2023-02-24T08:16:24.854Z,98413.95
2023-02-24T08:17:27.085Z,98415.89
2023-02-24T08:18:25.561Z,98407.83
2023-02-24T08:19:31.412Z,98408.8
2023-02-24T08:20:30.849Z,98414.02
2023-02-24T08:21:29.064Z,98404.58
2023-02-24T08:22:29.489Z,98403.53
2023-02-24T08:23:29.908Z,98404.32
2023-02-24T08:24:30.221Z,98400.06
2023-02-24T08:25:30.527Z,98405.41
2023-02-24T08:26:30.875Z,98405.95
2023-02-24T08:27:31.692Z,98406.15
2023-02-24T08:28:31.472Z,98400.59
2023-02-24T08:29:35.977Z,98401.23
2023-02-24T08:30:35.962Z,98401.54
2023-02-24T08:31:33.867Z,98399.64
2023-02-24T08:32:41.982Z,98398.91
2023-02-24T08:33:34.466Z,98400.81
2023-02-24T08:34:35.088Z,98400.73
2023-02-24T08:35:38.577Z,98406.39
2023-02-24T08:36:36.132Z,98403.56
2023-02-24T08:37:36.436Z,98401.67
2023-02-24T08:38:36.654Z,98397.64
2023-02-24T08:39:37.075Z,98400.21
2023-02-24T08:40:39.633Z,98398.59
2023-02-24T08:41:37.700Z,98395.44
2023-02-24T08:42:38.114Z,98397.56
2023-02-24T08:43:40.162Z,98400.16
2023-02-24T08:44:40.623Z,98396.48
2023-02-24T08:45:39.775Z,98396.05
2023-02-24T08:46:40.912Z,98398.43
2023-02-24T08:47:40.199Z,98396.25
2023-02-24T08:48:43.289Z,98392.02
2023-02-24T08:49:40.942Z,98395.03
2023-02-24T08:50:41.647Z,98395.18
2023-02-24T08:51:41.660Z,98394.98
2023-02-24T08:52:41.867Z,98394.8
2023-02-24T08:53:43.106Z,98395.61
2023-02-24T08:54:42.666Z,98395.29
2023-02-24T08:55:43.065Z,98393.03
2023-02-24T08:56:45.995Z,98391.93
2023-02-24T08:57:43.648Z,98389.06
2023-02-24T08:58:46.210Z,98386.55
2023-02-24T08:59:44.476Z,98389.87
2023-02-24T09:00:46.212Z,98389.9
2023-02-24T09:01:46.803Z,98390.66
2023-02-24T09:02:48.100Z,98386.12
2023-02-24T09:03:51.774Z,98385.12
2023-02-24T09:05:51.366Z,98383.66
2023-02-24T09:06:57.737Z,98379.47
2023-02-24T09:07:55.383Z,98382.38
2023-02-24T09:08:57.136Z,98379.66
2023-02-24T09:09:56.671Z,98382.17
2023-02-24T09:10:56.440Z,98377.67
2023-02-24T09:12:00.127Z,98376.56
2023-02-24T09:12:57.575Z,98374.97
2023-02-24T09:13:57.992Z,98377.33
2023-02-24T09:15:03.436Z,98376.51
2023-02-24T09:16:02.752Z,98372.69
2023-02-24T09:17:01.381Z,98375.5
2023-02-24T09:18:01.717Z,98373.37
2023-02-24T09:19:02.024Z,98375.3
2023-02-24T09:20:02.340Z,98377.42
2023-02-24T09:21:08.470Z,98376.02
2023-02-24T09:22:10.403Z,98374.58
2023-02-24T09:23:13.708Z,98374.32
2023-02-24T09:24:11.359Z,98373.94
2023-02-24T09:25:13.625Z,98371.39
2023-02-24T09:26:13.013Z,98369.91
2023-02-24T09:27:12.197Z,98370.42
2023-02-24T09:28:15.237Z,98371.45
2023-02-24T09:29:13.748Z,98367.86
2023-02-24T09:30:14.582Z,98367.09
2023-02-24T09:31:14.036Z,98367.77
2023-02-24T09:32:14.141Z,98365.36
2023-02-24T09:34:17.976Z,98367.1
2023-02-24T09:35:18.501Z,98366.53
2023-02-24T09:36:22.612Z,98362.12
2023-02-24T09:37:19.951Z,98361.48
2023-02-24T09:38:22.523Z,98366.38
2023-02-24T09:39:20.884Z,98362.76
2023-02-24T09:40:21.096Z,98360.32
2023-02-24T09:43:28.595Z,98355.97
2023-02-24T09:44:34.637Z,98358.17
2023-02-24T09:45:28.109Z,98352.86
2023-02-24T09:46:28.569Z,98351.05
2023-02-24T09:51:00.937Z,98346.37
2023-02-24T09:51:36.940Z,98345.44
2023-02-24T09:52:37.266Z,98345.66
2023-02-24T09:53:41.088Z,98344.77
2023-02-24T09:54:39.214Z,98344.32
2023-02-24T09:59:57.850Z,98336.41
2023-02-24T10:10:25.608Z,98323.25
2023-02-24T10:11:24.372Z,98321.85
2023-02-24T10:12:34.314Z,98319.89
2023-02-24T10:13:31.243Z,98317.91
2023-02-24T10:15:34.840Z,98319.31
2023-02-24T10:16:40.639Z,98319.91
2023-02-24T10:17:34.756Z,98315.25
2023-02-24T10:19:38.385Z,98311.78
2023-02-24T10:20:42.930Z,98309.83
2023-02-24T10:37:27.527Z,98305.11
2023-02-24T10:38:16.147Z,98306.92
2023-02-24T10:39:18.819Z,98302.61
2023-02-24T10:40:17.442Z,98305.64
2023-02-24T10:41:17.910Z,98304.03
2023-02-24T10:43:22.553Z,98297.05
2023-02-24T10:44:22.554Z,98294.85
2023-02-24T10:45:24.700Z,98293.16
2023-02-24T10:46:40.529Z,98290.27
2023-02-24T10:48:41.453Z,98284.16
2023-02-24T10:49:29.434Z,98284.75
2023-02-24T10:50:54.997Z,98282.3
2023-02-24T10:51:38.148Z,98282.28
2023-02-24T10:52:41.690Z,98278.32
2023-02-24T10:53:39.393Z,98277.97
2023-02-24T10:54:39.709Z,98276.2
2023-02-24T10:55:45.361Z,98280.72
2023-02-24T10:56:44.017Z,98274.5
2023-02-24T10:57:58.245Z,98275.34
2023-02-24T10:58:46.813Z,98277.17
2023-02-24T10:59:54.551Z,98274.77
2023-02-24T11:00:49.168Z,98270.58
2023-02-24T11:02:52.448Z,98272.62
2023-02-24T11:05:01.259Z,98272.39
2023-02-24T11:05:54.625Z,98272.59
2023-02-24T11:09:01.098Z,98274.84
2023-02-24T11:10:05.912Z,98275.44
2023-02-24T11:13:09.903Z,98282.63
2023-02-24T11:16:12.739Z,98277.73
2023-02-24T11:18:22.860Z,98276.77
2023-02-24T11:19:20.729Z,98272.42
2023-02-24T11:21:25.851Z,98274.2
2023-02-24T11:22:28.527Z,98277.19
2023-02-24T11:23:35.191Z,98273.78
2023-02-24T11:24:28.839Z,98271.36
2023-02-24T11:26:37.874Z,98273.18
2023-02-24T11:27:30.408Z,98271
2023-02-24T11:51:38.748Z,98251.61
2023-02-24T11:52:43.459Z,98251.76
2023-02-24T11:55:51.482Z,98247.95
2023-02-24T11:56:56.947Z,98243
2023-02-24T11:57:53.770Z,98243.55
2023-02-24T12:09:23.661Z,98226.81
2023-02-24T12:16:40.136Z,98225.67
2023-02-24T12:18:50.608Z,98222.96
2023-02-24T12:23:54.836Z,98220.53
2023-02-24T12:24:54.943Z,98217.92
2023-02-24T12:58:41.685Z,98194.82
2023-02-24T12:59:41.754Z,98195.84
2023-02-24T13:14:36.012Z,98190.61
2023-02-24T13:15:31.246Z,98184.61
2023-02-24T13:16:36.304Z,98185.75
2023-02-24T13:17:33.675Z,98192.72
2023-02-24T13:18:36.970Z,98188.88
2023-02-24T13:19:34.829Z,98194.55
2023-02-24T13:20:37.601Z,98189.44
2023-02-24T13:21:35.134Z,98192.47
2023-02-24T13:22:42.231Z,98193.44
2023-02-24T13:23:42.622Z,98195.05
2023-02-24T13:24:50.037Z,98191
2023-02-24T13:25:50.010Z,98198.64
2023-02-24T13:26:47.569Z,98196.66
2023-02-24T13:30:04.269Z,98199.12
2023-02-24T13:31:04.273Z,98195.81
2023-02-24T13:32:01.964Z,98195.14
2023-02-24T13:37:10.257Z,98193.88
2023-02-24T13:43:25.251Z,98187.22
2023-02-24T13:45:30.808Z,98186.34
2023-02-24T14:01:21.878Z,98174.5
2023-02-24T14:03:26.942Z,98174.45
2023-02-24T14:04:29.333Z,98177.59
2023-02-24T14:05:33.904Z,98176.38
2023-02-24T14:06:31.877Z,98173.46
2023-02-24T14:07:35.986Z,98170.97
2023-02-24T14:09:44.678Z,98171.78
2023-02-24T14:10:37.943Z,98167.17
2023-02-24T14:11:38.142Z,98167.41
2023-02-24T14:12:37.750Z,98172.98
2023-02-24T14:13:38.977Z,98169.47
2023-02-24T14:14:39.322Z,98175.16
2023-02-24T14:16:40.729Z,98162.05
2023-02-24T14:17:40.641Z,98160.99
2023-02-24T14:18:40.949Z,98159.67
2023-02-24T14:19:41.360Z,98162.34
2023-02-24T14:20:41.569Z,98161.11
2023-02-24T14:22:47.118Z,98162.97
2023-02-24T14:24:47.640Z,98161.74
2023-02-24T14:25:47.661Z,98156.01
2023-02-24T14:26:53.704Z,98157.78
2023-02-24T14:27:53.093Z,98159.52
2023-02-24T14:28:59.544Z,98154.28
2023-02-24T14:29:53.002Z,98155.7
2023-02-24T14:30:57.649Z,98156.53
2023-02-24T14:31:57.690Z,98156.23
2023-02-24T14:32:55.853Z,98154.48
2023-02-24T14:35:00.001Z,98150.38
2023-02-24T14:36:01.272Z,98149.81
2023-02-24T14:37:03.810Z,98148.3
2023-02-24T14:38:02.400Z,98142.41
2023-02-24T14:42:15.196Z,98134.09
2023-02-24T14:43:15.304Z,98131.7
2023-02-24T14:45:22.902Z,98130.23
2023-02-24T14:46:15.405Z,98127.7
2023-02-24T14:47:17.079Z,98127.04
2023-02-24T14:49:21.180Z,98123.02
2023-02-24T14:50:23.951Z,98120.55
2023-02-24T14:51:33.089Z,98120.23
2023-02-24T14:53:28.891Z,98114.61
2023-02-24T14:56:34.540Z,98110.62
2023-02-24T14:57:38.439Z,98110.7
2023-02-24T14:59:40.269Z,98106.52
2023-02-24T15:01:43.570Z,98103.86
2023-02-24T15:04:47.993Z,98101.73
2023-02-24T15:05:50.299Z,98100.33
2023-02-24T15:06:47.919Z,98100.69
2023-02-24T15:07:50.661Z,98099.56
2023-02-24T15:08:52.339Z,98104.73
2023-02-24T15:09:50.703Z,98106.1
2023-02-24T15:10:50.298Z,98104.23
2023-02-24T15:11:52.871Z,98108.38
2023-02-24T15:14:03.028Z,98111.42
2023-02-24T15:19:05.105Z,98120.28
2023-02-24T15:21:07.881Z,98122.02
2023-02-24T15:27:22.863Z,98130.2
2023-02-24T15:28:31.991Z,98130.73
2023-02-24T15:29:27.077Z,98131.2
2023-02-24T15:30:37.399Z,98131.86
2023-02-24T15:31:30.311Z,98135.23
2023-02-24T15:32:33.625Z,98132.45
2023-02-24T15:33:41.453Z,98133.16
2023-02-24T15:34:36.546Z,98136.72
2023-02-24T15:35:39.211Z,98133.2
2023-02-24T15:36:37.054Z,98134.52
2023-02-24T15:37:42.549Z,98132.93
2023-02-24T15:38:43.348Z,98133.8
2023-02-24T15:39:44.378Z,98131.84
2023-02-24T15:40:52.843Z,98128.23
2023-02-24T15:41:47.732Z,98131.55
2023-02-24T15:42:52.755Z,98132.81
2023-02-24T15:43:53.327Z,98132.98
2023-02-24T15:44:58.202Z,98129.31
2023-02-24T15:45:55.856Z,98128.06
2023-02-24T15:46:57.382Z,98129.03
2023-02-24T15:48:01.598Z,98129.91
2023-02-24T15:48:59.866Z,98129.15
2023-02-24T15:49:59.576Z,98127.75
2023-02-24T15:51:05.634Z,98126
2023-02-24T15:52:03.165Z,98126.59
2023-02-24T15:53:04.823Z,98123.96
2023-02-24T15:54:11.672Z,98123.1
2023-02-24T15:55:05.240Z,98123.41
2023-02-24T15:56:05.439Z,98123.94
2023-02-24T15:57:05.146Z,98125.64
2023-02-24T15:58:05.246Z,98127.67
2023-02-24T15:59:05.466Z,98122.5
2023-02-24T16:00:06.873Z,98125.2
2023-02-24T16:01:06.132Z,98123.55
2023-02-24T16:03:10.604Z,98125.58
2023-02-24T16:04:11.006Z,98122.72
2023-02-24T16:05:14.383Z,98123.86
2023-02-24T16:06:21.183Z,98126.41
2023-02-24T16:07:22.014Z,98127.16
2023-02-24T16:08:21.084Z,98125.61
2023-02-24T16:09:30.788Z,98129.16
2023-02-24T16:10:28.686Z,98127.73
2023-02-24T16:11:31.704Z,98125.65
2023-02-24T16:13:34.126Z,98122.19
2023-02-24T16:14:34.945Z,98123.8
2023-02-24T16:15:35.609Z,98126.98
2023-02-24T16:16:35.455Z,98120.3
2023-02-24T16:17:42.674Z,98120.44
2023-02-24T16:18:40.715Z,98120.31
2023-02-24T16:19:40.524Z,98119.89
2023-02-24T16:20:40.874Z,98121.7
2023-02-24T16:21:41.979Z,98123.25
2023-02-24T16:22:41.562Z,98122.44
2023-02-24T16:23:41.868Z,98121.27
2023-02-24T16:24:42.191Z,98121.41
2023-02-24T16:25:44.551Z,98122
2023-02-24T16:26:42.813Z,98120.36
2023-02-24T16:27:43.647Z,98117.41
2023-02-24T16:28:46.098Z,98115.34
2023-02-24T16:29:44.361Z,98117.48
2023-02-24T16:30:46.330Z,98117.31
2023-02-24T16:31:44.767Z,98116.67
2023-02-24T16:32:46.027Z,98119.28
2023-02-24T16:33:54.510Z,98114.66
2023-02-24T16:34:48.187Z,98115.72
2023-02-24T16:35:48.498Z,98114.27
2023-02-24T16:36:48.302Z,98111.95
2023-02-24T16:37:49.249Z,98114.02
2023-02-24T16:38:49.033Z,98113.34
2023-02-24T16:39:49.450Z,98111.58
2023-02-24T16:40:50.387Z,98111.91
2023-02-24T16:41:50.081Z,98109.77
2023-02-24T16:42:52.043Z,98109.39
2023-02-24T16:43:51.321Z,98113.88
2023-02-24T16:44:51.117Z,98107.8
2023-02-24T16:45:54.027Z,98107.31
2023-02-24T16:46:52.163Z,98108.2